createdAt,value
2022-09-18T00:01:33.424Z,84.60
2022-09-18T00:04:07.290Z,83.01
2022-09-18T00:06:38.345Z,82.75
2022-09-18T00:09:09.307Z,83.07
2022-09-18T00:11:40.655Z,80.37
2022-09-18T00:14:10.856Z,79.87
2022-09-18T00:16:39.493Z,81.93
2022-09-18T00:19:07.431Z,80.58
2022-09-18T00:21:37.467Z,79.73
2022-09-18T00:24:05.682Z,79.07
2022-09-18T00:26:33.495Z,79.15
2022-09-18T00:29:02.020Z,77.43
2022-09-18T00:31:32.172Z,77.56
2022-09-18T00:34:02.656Z,76.60
2022-09-18T00:36:30.443Z,73.79
2022-09-18T00:39:02.695Z,74.60
2022-09-18T00:41:33.132Z,74.28
2022-09-18T00:44:40.023Z,75.63
2022-09-18T00:47:10.512Z,76.02
2022-09-18T00:50:16.626Z,75.76
2022-09-18T00:52:47.641Z,75.35
2022-09-18T00:55:17.495Z,77.80
2022-09-18T00:57:52.131Z,76.08
2022-09-18T01:00:19.996Z,75.57
2022-09-18T01:02:48.657Z,77.83
2022-09-18T01:05:37.903Z,76.62
2022-09-18T01:08:07.595Z,77.80
2022-09-18T01:11:18.629Z,77.95
2022-09-18T01:14:12.655Z,76.92
2022-09-18T01:16:57.806Z,79.76
2022-09-18T01:19:31.566Z,80.27
2022-09-18T01:22:35.606Z,78.96
2022-09-18T01:25:33.182Z,80.47
2022-09-18T01:28:23.512Z,80.72
2022-09-18T01:30:56.267Z,78.83
2022-09-18T01:33:48.397Z,84.67
2022-09-18T01:36:21.570Z,86.16
2022-09-18T01:38:55.659Z,84.55
2022-09-18T01:41:28.510Z,85.21
2022-09-18T01:44:06.784Z,85.55
2022-09-18T01:46:38.101Z,87.03
2022-09-18T01:49:11.595Z,86.69
2022-09-18T01:51:50.496Z,88.01
2022-09-18T01:54:24.694Z,89.12
2022-09-18T01:56:57.291Z,87.24
2022-09-18T01:59:35.040Z,86.70
2022-09-18T02:02:15.626Z,84.11
2022-09-18T02:04:47.692Z,83.52
2022-09-18T02:07:26.599Z,81.69
2022-09-18T02:09:54.683Z,79.91
2022-09-18T02:12:26.993Z,80.42
2022-09-18T02:15:02.778Z,80.06
2022-09-18T02:17:59.779Z,80.70
2022-09-18T02:20:38.032Z,82.07
2022-09-18T02:23:07.970Z,78.77
2022-09-18T02:25:38.130Z,77.62
2022-09-18T02:28:09.448Z,77.21
2022-09-18T02:30:40.367Z,75.96
2022-09-18T02:33:27.826Z,77.31
2022-09-18T02:36:34.038Z,76.37
2022-09-18T02:39:08.210Z,78.17
2022-09-18T02:41:51.316Z,77.01
2022-09-18T02:44:35.986Z,78.89
2022-09-18T02:47:28.442Z,77.65
2022-09-18T02:50:53.393Z,78.94
2022-09-18T02:53:52.036Z,78.16
2022-09-18T02:57:04.026Z,80.49
2022-09-18T02:59:40.975Z,80.41
2022-09-18T03:02:12.436Z,81.92
2022-09-18T03:04:41.030Z,83.49
2022-09-18T03:07:14.656Z,83.73
2022-09-18T03:09:43.925Z,83.63
2022-09-18T03:12:12.163Z,85.26
2022-09-18T03:14:45.147Z,86.01
2022-09-18T03:17:12.882Z,86.13
2022-09-18T03:19:40.371Z,83.56
2022-09-18T03:22:08.174Z,85.90
2022-09-18T03:24:37.441Z,85.95
2022-09-18T03:27:07.129Z,85.39
2022-09-18T03:29:36.550Z,86.01
2022-09-18T03:32:04.246Z,87.72
2022-09-18T03:34:39.933Z,90.00
2022-09-18T03:37:07.555Z,85.41
2022-09-18T03:39:35.622Z,86.34
2022-09-18T03:42:04.760Z,85.34
2022-09-18T03:44:32.276Z,88.04
2022-09-18T03:47:04.237Z,87.66
2022-09-18T03:49:32.226Z,88.00
2022-09-18T03:51:59.658Z,88.51
2022-09-18T03:54:32.059Z,89.59
2022-09-18T03:57:19.659Z,89.23
2022-09-18T04:00:17.203Z,89.30
2022-09-18T04:02:46.861Z,88.11
2022-09-18T04:05:34.821Z,89.31
2022-09-18T04:08:25.620Z,90.54
2022-09-18T04:11:10.547Z,91.95
2022-09-18T04:13:38.271Z,91.83
2022-09-18T04:16:09.120Z,92.73
2022-09-18T04:18:36.662Z,92.01
2022-09-18T04:21:06.375Z,91.35
2022-09-18T04:23:35.732Z,91.56
2022-09-18T04:26:09.053Z,91.39
2022-09-18T04:28:40.806Z,93.18
2022-09-18T04:31:10.207Z,93.30
2022-09-18T04:33:37.708Z,90.99
2022-09-18T04:36:07.799Z,91.60
2022-09-18T04:38:36.582Z,92.85
2022-09-18T04:41:04.751Z,93.61
2022-09-18T04:43:32.401Z,94.21
2022-09-18T04:46:00.915Z,94.25
2022-09-18T04:48:28.583Z,91.87
2022-09-18T04:50:57.043Z,92.13
2022-09-18T04:53:27.600Z,92.16
2022-09-18T04:55:56.878Z,92.49
2022-09-18T04:58:24.267Z,92.90
2022-09-18T05:00:58.684Z,92.44
2022-09-18T05:03:26.207Z,91.11
2022-09-18T05:05:55.050Z,91.00
2022-09-18T05:08:24.267Z,91.98
2022-09-18T05:10:51.950Z,91.09
2022-09-18T05:13:20.121Z,91.30
2022-09-18T05:16:00.539Z,91.56
2022-09-18T05:18:30.590Z,91.59
2022-09-18T05:21:04.691Z,91.84
2022-09-18T05:23:34.539Z,90.89
2022-09-18T05:26:02.769Z,89.88
2022-09-18T05:28:30.224Z,89.94
2022-09-18T05:31:02.226Z,89.24
2022-09-18T05:33:41.238Z,89.36
2022-09-18T05:36:09.215Z,90.08
2022-09-18T05:38:36.851Z,89.04
2022-09-18T05:41:06.817Z,89.58
2022-09-18T05:43:34.790Z,89.71
2022-09-18T05:46:05.647Z,89.68
2022-09-18T05:48:45.018Z,86.95
2022-09-18T05:51:12.494Z,85.44
2022-09-18T05:53:42.046Z,82.65
2022-09-18T05:56:16.772Z,80.37
2022-09-18T05:58:44.897Z,78.98
2022-09-18T06:01:14.346Z,78.76
2022-09-18T06:04:11.020Z,78.87
2022-09-18T06:06:46.620Z,76.81
2022-09-18T06:09:15.250Z,76.20
2022-09-18T06:11:42.620Z,71.56
2022-09-18T06:14:10.204Z,69.05
2022-09-18T06:16:42.066Z,68.67
2022-09-18T06:19:10.763Z,67.45
2022-09-18T06:21:38.297Z,66.87
2022-09-18T06:24:08.958Z,65.41
2022-09-18T06:26:43.232Z,65.20
2022-09-18T06:29:10.784Z,64.20
2022-09-18T06:31:46.719Z,62.66
2022-09-18T06:34:20.911Z,65.10
2022-09-18T06:36:48.889Z,67.27
2022-09-18T06:39:36.517Z,66.76
2022-09-18T06:42:05.074Z,65.39
2022-09-18T06:44:55.402Z,65.12
2022-09-18T06:47:23.337Z,63.12
2022-09-18T06:49:50.694Z,62.35
2022-09-18T06:52:18.221Z,59.46
2022-09-18T06:54:47.075Z,58.87
2022-09-18T06:57:29.214Z,58.18
2022-09-18T06:59:57.362Z,59.02
2022-09-18T07:02:25.250Z,59.17
2022-09-18T07:05:03.937Z,57.75
2022-09-18T07:07:31.427Z,54.53
2022-09-18T07:09:58.779Z,53.09
2022-09-18T07:12:34.021Z,50.77
2022-09-18T07:15:04.030Z,49.13
2022-09-18T07:17:31.620Z,49.95
2022-09-18T07:19:58.984Z,51.13
2022-09-18T07:22:36.893Z,53.55
2022-09-18T07:25:05.813Z,54.63
2022-09-18T07:27:33.793Z,54.56
2022-09-18T07:30:01.307Z,54.73
2022-09-18T07:32:28.778Z,55.00
2022-09-18T07:34:58.042Z,54.96
2022-09-18T07:37:30.667Z,54.73
2022-09-18T07:40:12.753Z,52.98
2022-09-18T07:43:08.575Z,52.32
2022-09-18T07:45:38.889Z,51.31
2022-09-18T07:48:07.694Z,51.06
2022-09-18T07:50:41.198Z,52.37
2022-09-18T07:53:10.498Z,52.17
2022-09-18T07:55:45.287Z,52.89
2022-09-18T07:58:14.455Z,52.34
2022-09-18T08:01:02.838Z,53.07
2022-09-18T08:03:32.542Z,52.67
2022-09-18T08:06:07.547Z,53.14
2022-09-18T08:08:36.309Z,52.90
2022-09-18T08:11:22.373Z,51.88
2022-09-18T08:14:08.814Z,52.77
2022-09-18T08:16:45.252Z,53.32
2022-09-18T08:19:27.215Z,53.00
2022-09-18T08:22:05.800Z,53.90
2022-09-18T08:24:33.802Z,51.83
2022-09-18T08:27:03.791Z,52.62
2022-09-18T08:29:32.664Z,52.10
2022-09-18T08:32:09.586Z,51.88
2022-09-18T08:34:37.829Z,50.94
2022-09-18T08:37:05.546Z,52.93
2022-09-18T08:40:05.822Z,53.06
2022-09-18T08:43:03.385Z,53.08
2022-09-18T08:45:47.461Z,50.04
2022-09-18T08:48:31.449Z,51.50
2022-09-18T08:51:06.771Z,52.15
2022-09-18T08:53:42.399Z,51.15
2022-09-18T08:56:34.975Z,49.71
2022-09-18T08:59:39.864Z,50.52
2022-09-18T09:02:24.967Z,51.61
2022-09-18T09:04:58.750Z,51.69
2022-09-18T09:07:39.659Z,52.17
2022-09-18T09:10:26.437Z,51.50
2022-09-18T09:13:00.906Z,51.24
2022-09-18T09:15:37.575Z,49.19
2022-09-18T09:18:28.660Z,50.53
2022-09-18T09:20:57.872Z,51.08
2022-09-18T09:23:51.891Z,50.36
2022-09-18T09:26:56.158Z,50.62
2022-09-18T09:30:13.284Z,50.42
2022-09-18T09:33:21.532Z,49.92
2022-09-18T09:36:24.311Z,47.76
2022-09-18T09:39:24.207Z,46.54
2022-09-18T09:42:23.880Z,46.28
2022-09-18T09:45:11.075Z,46.45
2022-09-18T09:47:52.427Z,45.96
2022-09-18T09:50:44.958Z,47.27
2022-09-18T09:53:13.804Z,45.13
2022-09-18T09:55:47.660Z,43.82
2022-09-18T09:58:46.050Z,45.98
2022-09-18T10:01:22.775Z,46.05
2022-09-18T10:04:21.302Z,47.20
2022-09-18T10:07:02.042Z,48.37
2022-09-18T10:09:45.391Z,47.62
2022-09-18T10:12:37.489Z,46.78
2022-09-18T10:15:41.844Z,47.18
2022-09-18T10:18:27.019Z,48.23
2022-09-18T10:21:07.836Z,47.97
2022-09-18T10:23:44.391Z,47.61
2022-09-18T10:26:26.108Z,46.63
2022-09-18T10:28:53.779Z,46.63
2022-09-18T10:31:22.362Z,46.41
2022-09-18T10:33:53.233Z,45.31
2022-09-18T10:36:36.227Z,45.14
2022-09-18T10:39:34.188Z,46.06
2022-09-18T10:42:06.168Z,44.96
2022-09-18T10:44:41.706Z,45.29
2022-09-18T10:47:18.438Z,44.24
2022-09-18T10:49:59.401Z,42.32
2022-09-18T10:52:32.076Z,42.88
2022-09-18T10:55:04.877Z,43.65
2022-09-18T10:57:35.723Z,43.55
2022-09-18T11:00:20.775Z,43.66
2022-09-18T11:02:58.707Z,43.08
2022-09-18T11:05:36.491Z,42.93
2022-09-18T11:08:16.408Z,42.35
2022-09-18T11:10:53.280Z,40.60
2022-09-18T11:13:26.017Z,41.37
2022-09-18T11:15:59.595Z,42.67
2022-09-18T11:18:31.420Z,40.98
2022-09-18T11:21:04.221Z,40.11
2022-09-18T11:23:34.649Z,40.88
2022-09-18T11:26:28.548Z,41.32
2022-09-18T11:29:17.563Z,40.39
2022-09-18T11:31:55.344Z,39.67
2022-09-18T11:34:43.724Z,41.97
2022-09-18T11:37:23.338Z,41.54
2022-09-18T11:39:58.543Z,40.42
2022-09-18T11:42:27.340Z,41.89
2022-09-18T11:45:09.495Z,41.28
2022-09-18T11:47:46.206Z,40.36
2022-09-18T11:50:20.699Z,40.40
2022-09-18T11:52:55.380Z,41.51
2022-09-18T11:55:42.187Z,40.85
2022-09-18T11:58:20.674Z,39.87
2022-09-18T12:01:04.346Z,40.40
2022-09-18T12:03:39.825Z,38.24
2022-09-18T12:06:21.526Z,40.79
2022-09-18T12:09:07.118Z,40.39
2022-09-18T12:11:38.635Z,40.90
2022-09-18T12:14:21.796Z,38.91
2022-09-18T12:17:17.987Z,37.54
2022-09-18T12:19:53.579Z,34.75
2022-09-18T12:22:35.876Z,32.50
2022-09-18T12:25:29.567Z,32.63
2022-09-18T12:29:02.984Z,31.66
2022-09-18T12:31:51.483Z,30.36
2022-09-18T12:34:56.437Z,30.40
2022-09-18T12:37:48.803Z,30.66
2022-09-18T12:40:33.993Z,31.76
2022-09-18T12:43:38.895Z,32.61
2022-09-18T12:46:25.947Z,34.84
2022-09-18T12:48:56.796Z,35.67
2022-09-18T12:51:41.582Z,35.06
2022-09-18T12:54:32.606Z,35.70
2022-09-18T12:57:17.174Z,36.50
2022-09-18T12:59:59.907Z,35.64
2022-09-18T13:02:55.496Z,35.35
2022-09-18T13:05:39.032Z,35.20
2022-09-18T13:08:13.072Z,35.67
2022-09-18T13:10:43.060Z,35.65
2022-09-18T13:13:43.731Z,34.68
2022-09-18T13:16:17.939Z,32.79
2022-09-18T13:18:55.844Z,33.86
2022-09-18T13:21:26.230Z,32.58
2022-09-18T13:24:06.658Z,31.34
2022-09-18T13:26:41.343Z,31.10
2022-09-18T13:29:47.103Z,30.93
2022-09-18T13:32:26.266Z,30.23
2022-09-18T13:34:55.199Z,29.14
2022-09-18T13:37:28.948Z,29.33
2022-09-18T13:40:10.501Z,31.27
2022-09-18T13:42:42.771Z,30.69
2022-09-18T13:45:20.698Z,31.49
2022-09-18T13:48:20.477Z,30.23
2022-09-18T13:51:35.280Z,32.20
2022-09-18T13:57:41.131Z,31.34
2022-09-18T14:03:41.302Z,30.31
2022-09-18T14:06:42.894Z,31.23
2022-09-18T14:09:47.906Z,31.62
2022-09-18T14:12:17.766Z,31.71
2022-09-18T14:15:01.138Z,31.69
2022-09-18T14:17:31.149Z,31.30
2022-09-18T14:20:18.338Z,30.18
2022-09-18T14:22:45.790Z,31.66
2022-09-18T14:25:14.988Z,28.42
2022-09-18T14:27:57.142Z,27.55
2022-09-18T14:30:27.496Z,27.49
2022-09-18T14:33:09.738Z,28.36
2022-09-18T14:35:37.861Z,28.34
2022-09-18T14:38:27.640Z,27.71
2022-09-18T14:41:18.869Z,26.65
2022-09-18T14:43:51.845Z,26.74
2022-09-18T14:46:21.245Z,27.74
2022-09-18T14:48:49.244Z,26.45
2022-09-18T14:51:23.433Z,28.65
2022-09-18T14:53:57.350Z,29.31
2022-09-18T14:56:34.051Z,28.89
2022-09-18T14:59:05.862Z,27.53
2022-09-18T15:01:40.096Z,27.12
2022-09-18T15:04:18.067Z,27.49
2022-09-18T15:06:51.495Z,26.63
2022-09-18T15:09:35.031Z,27.30
2022-09-18T15:12:03.483Z,26.54
2022-09-18T15:14:44.171Z,27.23
2022-09-18T15:17:25.805Z,27.46
2022-09-18T15:20:03.012Z,27.11
2022-09-18T15:22:31.045Z,27.19
2022-09-18T15:25:01.790Z,27.24
2022-09-18T15:27:36.131Z,26.73
2022-09-18T15:30:15.166Z,26.37
2022-09-18T15:32:49.454Z,27.83
2022-09-18T15:35:23.926Z,29.15
2022-09-18T15:38:05.123Z,26.29
2022-09-18T15:40:38.520Z,26.08
2022-09-18T15:43:27.735Z,27.03
2022-09-18T15:46:11.948Z,28.21
2022-09-18T15:48:39.390Z,27.88
2022-09-18T15:51:08.215Z,27.98
2022-09-18T15:53:36.852Z,26.78
2022-09-18T15:56:18.399Z,26.59
2022-09-18T15:58:52.482Z,28.40
2022-09-18T16:01:23.395Z,26.84
2022-09-18T16:04:08.542Z,27.32
2022-09-18T16:06:48.260Z,27.79
2022-09-18T16:09:33.635Z,29.40
2022-09-18T16:12:01.835Z,30.38
2022-09-18T16:15:00.737Z,29.44
2022-09-18T16:17:36.756Z,29.49
2022-09-18T16:20:35.507Z,28.95
2022-09-18T16:23:15.320Z,29.22
2022-09-18T16:25:43.858Z,29.31
2022-09-18T16:28:22.815Z,29.30
2022-09-18T16:30:50.617Z,28.87
2022-09-18T16:33:23.890Z,29.79
2022-09-18T16:36:00.364Z,29.18
2022-09-18T16:38:30.165Z,28.90
2022-09-18T16:40:58.954Z,28.83
2022-09-18T16:43:26.366Z,28.60
2022-09-18T16:45:55.065Z,29.24
2022-09-18T16:48:24.441Z,28.29
2022-09-18T16:50:53.637Z,28.79
2022-09-18T16:53:21.181Z,29.78
2022-09-18T16:55:53.378Z,29.29
2022-09-18T16:58:22.581Z,29.50
2022-09-18T17:00:51.074Z,28.90
2022-09-18T17:03:19.605Z,29.54
2022-09-18T17:05:49.299Z,29.44
2022-09-18T17:08:16.727Z,30.63
2022-09-18T17:10:45.609Z,30.23
2022-09-18T17:13:15.049Z,29.43
2022-09-18T17:15:42.576Z,32.06
2022-09-18T17:18:10.007Z,29.68
2022-09-18T17:20:38.055Z,33.49
2022-09-18T17:23:05.584Z,34.74
2022-09-18T17:25:33.363Z,35.10
2022-09-18T17:28:00.982Z,35.31
2022-09-18T17:30:28.691Z,37.02
2022-09-18T17:32:56.160Z,37.93
2022-09-18T17:35:23.675Z,38.95
2022-09-18T17:37:51.739Z,39.74
2022-09-18T17:40:19.579Z,39.38
2022-09-18T17:42:47.121Z,40.48
2022-09-18T17:45:14.951Z,42.82
2022-09-18T17:47:42.256Z,41.89
2022-09-18T17:50:09.856Z,42.63
2022-09-18T17:52:37.367Z,43.22
2022-09-18T17:55:05.325Z,42.56
2022-09-18T17:57:35.551Z,42.14
2022-09-18T18:00:03.577Z,41.77
2022-09-18T18:02:40.050Z,43.20
2022-09-18T18:05:08.380Z,42.49
2022-09-18T18:07:36.303Z,43.12
2022-09-18T18:10:04.166Z,44.38
2022-09-18T18:12:32.599Z,45.76
2022-09-18T18:15:01.571Z,46.50
2022-09-18T18:17:34.026Z,47.20
2022-09-18T18:20:05.396Z,48.45
2022-09-18T18:22:34.840Z,49.09
2022-09-18T18:25:02.320Z,50.46
2022-09-18T18:27:30.669Z,52.28
2022-09-18T18:29:59.362Z,51.04
2022-09-18T18:32:27.793Z,52.52
2022-09-18T18:34:55.547Z,53.58
2022-09-18T18:37:23.709Z,54.00
2022-09-18T18:39:51.262Z,54.46
2022-09-18T18:42:19.661Z,53.09
2022-09-18T18:44:47.482Z,53.62
2022-09-18T18:47:18.768Z,53.16
2022-09-18T18:49:47.527Z,54.07
2022-09-18T18:52:15.898Z,53.26
2022-09-18T18:54:43.884Z,53.08
2022-09-18T18:57:12.209Z,54.77
2022-09-18T18:59:41.000Z,54.41
2022-09-18T19:02:11.851Z,51.95
2022-09-18T19:04:42.061Z,51.37
2022-09-18T19:07:11.540Z,52.31
2022-09-18T19:09:41.801Z,50.54
2022-09-18T19:12:10.929Z,51.31
2022-09-18T19:14:39.779Z,51.29
2022-09-18T19:17:10.810Z,53.14
2022-09-18T19:19:40.011Z,53.44
2022-09-18T19:22:10.003Z,54.16
2022-09-18T19:24:38.745Z,51.66
2022-09-18T19:27:07.738Z,52.99
2022-09-18T19:29:39.839Z,54.32
2022-09-18T19:32:09.960Z,53.05
2022-09-18T19:34:38.454Z,51.68
2022-09-18T19:37:11.559Z,52.63
2022-09-18T19:39:41.072Z,53.81
2022-09-18T19:42:15.293Z,50.99
2022-09-18T19:44:55.836Z,52.50
2022-09-18T19:47:29.742Z,52.43
2022-09-18T19:50:00.247Z,52.80
2022-09-18T19:52:31.606Z,52.68
2022-09-18T19:55:02.799Z,52.56
2022-09-18T19:57:31.944Z,52.02
2022-09-18T20:00:01.512Z,51.69
2022-09-18T20:02:40.522Z,51.13
2022-09-18T20:05:10.885Z,53.83
2022-09-18T20:07:41.650Z,52.80
2022-09-18T20:10:17.280Z,51.82
2022-09-18T20:12:51.098Z,49.61
2022-09-18T20:15:21.232Z,50.12
2022-09-18T20:17:49.813Z,50.50
2022-09-18T20:20:18.502Z,49.63
2022-09-18T20:22:47.745Z,51.04
2022-09-18T20:25:17.305Z,51.12
2022-09-18T20:27:47.807Z,52.43
2022-09-18T20:30:16.359Z,52.67
2022-09-18T20:32:45.556Z,52.88
2022-09-18T20:35:15.139Z,55.30
2022-09-18T20:37:43.316Z,52.96
2022-09-18T20:40:13.110Z,51.91
2022-09-18T20:42:41.666Z,52.53
2022-09-18T20:45:11.171Z,54.40
2022-09-18T20:47:39.952Z,53.82
2022-09-18T20:50:14.310Z,53.50
2022-09-18T20:52:45.921Z,52.06
2022-09-18T20:55:17.935Z,53.58
2022-09-18T20:57:46.807Z,54.98
2022-09-18T21:00:16.215Z,53.46
2022-09-18T21:02:49.689Z,54.26
2022-09-18T21:05:18.613Z,55.99
2022-09-18T21:07:47.535Z,56.50
2022-09-18T21:10:17.147Z,57.21
2022-09-18T21:12:45.142Z,55.48
2022-09-18T21:15:15.333Z,57.11
2022-09-18T21:17:42.995Z,56.34
2022-09-18T21:20:13.381Z,56.20
2022-09-18T21:23:03.953Z,55.97
2022-09-18T21:25:31.425Z,56.64
2022-09-18T21:27:59.331Z,57.36
2022-09-18T21:30:27.677Z,55.93
2022-09-18T21:32:55.972Z,56.59
2022-09-18T21:35:25.662Z,57.70
2022-09-18T21:37:55.622Z,56.59
2022-09-18T21:40:24.199Z,56.28
2022-09-18T21:42:56.425Z,54.14
2022-09-18T21:45:23.942Z,55.80
2022-09-18T21:47:51.343Z,56.73
2022-09-18T21:50:19.197Z,54.90
2022-09-18T21:52:46.613Z,53.22
2022-09-18T21:55:15.030Z,55.28
2022-09-18T21:57:42.564Z,55.64
2022-09-18T22:00:10.855Z,55.43
2022-09-18T22:02:44.586Z,55.42
2022-09-18T22:05:12.263Z,52.69
2022-09-18T22:07:40.834Z,52.46
2022-09-18T22:10:09.020Z,51.93
2022-09-18T22:12:40.468Z,52.04
2022-09-18T22:15:09.098Z,50.97
2022-09-18T22:17:36.624Z,51.08
2022-09-18T22:20:04.527Z,51.36
2022-09-18T22:22:31.922Z,51.83
2022-09-18T22:25:00.181Z,54.68
2022-09-18T22:27:28.278Z,56.00
2022-09-18T22:29:55.898Z,56.47
2022-09-18T22:32:24.067Z,57.96
2022-09-18T22:34:53.216Z,57.09
2022-09-18T22:37:21.062Z,58.39
2022-09-18T22:39:49.115Z,57.40
2022-09-18T22:42:17.575Z,58.03
2022-09-18T22:44:44.983Z,58.32
2022-09-18T22:47:12.638Z,56.97
2022-09-18T22:49:40.118Z,58.81
2022-09-18T22:52:07.593Z,59.75
2022-09-18T22:54:35.749Z,57.64
2022-09-18T22:57:03.557Z,59.52
2022-09-18T22:59:31.028Z,59.41
2022-09-18T23:02:02.411Z,61.12
2022-09-18T23:04:33.663Z,59.14
2022-09-18T23:07:02.560Z,60.60
2022-09-18T23:09:30.236Z,60.35
2022-09-18T23:11:59.222Z,59.43
2022-09-18T23:14:29.592Z,59.35
2022-09-18T23:16:58.221Z,59.67
2022-09-18T23:19:30.079Z,59.20
2022-09-18T23:21:57.967Z,59.34
2022-09-18T23:24:27.179Z,59.81
2022-09-18T23:26:58.100Z,60.07
2022-09-18T23:29:28.994Z,59.81
2022-09-18T23:31:57.963Z,59.00
2022-09-18T23:34:31.240Z,60.12
2022-09-18T23:37:00.937Z,60.21
2022-09-18T23:39:31.513Z,61.14
2022-09-18T23:42:02.582Z,62.55
2022-09-18T23:44:32.030Z,61.98
2022-09-18T23:47:00.017Z,62.00
2022-09-18T23:49:28.173Z,63.49
2022-09-18T23:51:57.386Z,63.46
2022-09-18T23:54:28.484Z,61.47
2022-09-18T23:56:56.148Z,62.80
2022-09-18T23:59:26.066Z,64.60
